createdAt,value
2019-05-17T00:00:37.533Z,1.00
2019-05-17T00:03:09.127Z,1.00
2019-05-17T00:05:41.737Z,1.00
2019-05-17T00:08:13.411Z,1.00
2019-05-17T00:10:46.515Z,1.00
2019-05-17T00:13:18.259Z,1.00
2019-05-17T00:15:50.053Z,1.00
2019-05-17T00:18:21.679Z,1.00
2019-05-17T00:20:53.333Z,1.00
2019-05-17T00:23:26.893Z,1.00
2019-05-17T00:25:58.758Z,1.00
2019-05-17T00:28:30.491Z,1.00
2019-05-17T00:31:02.232Z,1.00
2019-05-17T00:33:33.941Z,1.00
2019-05-17T00:36:06.980Z,1.00
2019-05-17T00:38:48.213Z,1.00
2019-05-17T00:41:12.487Z,1.00
2019-05-17T00:43:46.133Z,1.00
2019-05-17T00:46:17.503Z,1.00
2019-05-17T00:48:49.315Z,1.00
2019-05-17T00:51:21.003Z,1.00
2019-05-17T00:53:52.613Z,1.00
2019-05-17T00:56:26.473Z,1.00
2019-05-17T00:58:57.683Z,1.00
2019-05-17T01:01:29.345Z,1.00
2019-05-17T01:04:01.027Z,1.00
2019-05-17T01:06:32.701Z,1.00
2019-05-17T01:09:07.610Z,1.00
2019-05-17T01:11:38.728Z,1.00
2019-05-17T01:14:10.489Z,1.00
2019-05-17T01:16:42.331Z,1.00
2019-05-17T01:19:16.232Z,1.00
2019-05-17T01:21:47.608Z,1.00
2019-05-17T01:24:19.393Z,1.00
2019-05-17T01:26:51.061Z,1.00
2019-05-17T01:29:22.706Z,1.00
2019-05-17T01:31:54.364Z,1.00
2019-05-17T01:34:27.222Z,1.00
2019-05-17T01:36:59.077Z,1.00
2019-05-17T01:39:33.477Z,1.00
2019-05-17T01:42:04.131Z,1.00
2019-05-17T01:44:36.741Z,1.00
2019-05-17T01:47:08.631Z,1.00
2019-05-17T01:49:40.265Z,1.00
2019-05-17T01:52:12.123Z,1.00
2019-05-17T01:54:43.777Z,1.00
2019-05-17T01:57:16.880Z,1.00
2019-05-17T01:59:48.720Z,1.00
2019-05-17T02:02:27.054Z,1.00
2019-05-17T02:04:58.731Z,1.00
2019-05-17T02:07:30.516Z,1.00
2019-05-17T02:10:02.243Z,1.00
2019-05-17T02:12:33.965Z,1.00
2019-05-17T02:15:06.940Z,1.00
2019-05-17T02:17:38.761Z,1.00
2019-05-17T02:20:11.880Z,1.00
2019-05-17T02:22:43.611Z,1.00
2019-05-17T02:25:17.389Z,1.00
2019-05-17T02:27:49.060Z,1.00
2019-05-17T02:30:23.350Z,1.00
2019-05-17T02:32:55.845Z,1.00
2019-05-17T02:35:27.481Z,1.00
2019-05-17T02:38:02.616Z,1.00
2019-05-17T02:40:34.162Z,1.00
2019-05-17T02:43:06.067Z,1.00
2019-05-17T02:45:37.705Z,1.00
2019-05-17T02:48:09.414Z,1.00
2019-05-17T02:50:43.205Z,1.00
2019-05-17T02:53:15.553Z,1.00
2019-05-17T02:55:47.262Z,1.00
2019-05-17T02:58:18.929Z,1.00
2019-05-17T03:00:53.292Z,1.00
2019-05-17T03:03:23.976Z,1.00
2019-05-17T03:05:55.618Z,1.00
2019-05-17T03:08:27.279Z,1.00
2019-05-17T03:10:58.913Z,1.00
2019-05-17T03:13:32.875Z,1.00
2019-05-17T03:16:04.926Z,1.00
2019-05-17T03:18:36.648Z,1.00
2019-05-17T03:21:08.346Z,1.00
2019-05-17T03:23:43.254Z,1.00
2019-05-17T03:26:13.506Z,1.00
2019-05-17T03:28:45.421Z,1.00
2019-05-17T03:31:17.689Z,1.00
2019-05-17T03:33:55.084Z,1.00
2019-05-17T03:36:25.994Z,1.00
2019-05-17T03:38:57.231Z,1.00
2019-05-17T03:41:29.551Z,1.00
2019-05-17T03:44:03.293Z,1.00
2019-05-17T03:46:34.805Z,1.00
2019-05-17T03:49:06.485Z,1.00
2019-05-17T03:51:38.115Z,1.00
2019-05-17T03:54:13.514Z,1.00
2019-05-17T03:56:43.199Z,1.00
2019-05-17T03:59:14.915Z,1.00
2019-05-17T04:01:46.619Z,1.00
2019-05-17T04:04:18.330Z,1.00
2019-05-17T04:06:52.576Z,1.00
2019-05-17T04:09:23.363Z,1.00
2019-05-17T04:11:56.003Z,1.00
2019-05-17T04:14:27.704Z,1.00
2019-05-17T04:17:02.860Z,1.00
2019-05-17T04:19:33.777Z,1.00
2019-05-17T04:22:05.580Z,1.00
2019-05-17T04:24:37.248Z,1.00
2019-05-17T04:27:08.871Z,1.00
2019-05-17T04:29:42.523Z,1.00
2019-05-17T04:32:13.917Z,1.00
2019-05-17T04:34:45.721Z,1.00
2019-05-17T04:37:17.371Z,1.00
2019-05-17T04:39:52.269Z,1.00
2019-05-17T04:42:22.868Z,1.00
2019-05-17T04:44:54.581Z,1.00
2019-05-17T04:47:26.235Z,1.00
2019-05-17T04:49:57.941Z,1.00
2019-05-17T04:52:33.598Z,1.00
2019-05-17T04:55:04.506Z,1.00
2019-05-17T04:57:36.285Z,1.00
2019-05-17T05:00:08.498Z,1.00
2019-05-17T05:02:43.243Z,1.00
2019-05-17T05:05:14.246Z,1.00
2019-05-17T05:07:47.110Z,1.00
2019-05-17T05:10:18.904Z,1.00
2019-05-17T05:12:52.408Z,1.00
2019-05-17T05:15:43.336Z,1.00
2019-05-17T05:18:14.326Z,1.00
2019-05-17T05:20:45.995Z,1.00
2019-05-17T05:23:17.825Z,1.00
2019-05-17T05:25:52.101Z,1.00
2019-05-17T05:28:22.922Z,1.00
2019-05-17T05:30:54.626Z,1.00
2019-05-17T05:33:26.295Z,1.00
2019-05-17T05:35:57.969Z,1.00
2019-05-17T05:38:31.800Z,1.00
2019-05-17T05:41:02.954Z,1.00
2019-05-17T05:43:35.643Z,99.90
2019-05-17T05:46:07.406Z,99.90
2019-05-17T05:48:41.226Z,99.90
2019-05-17T05:51:13.663Z,1.00
2019-05-17T05:53:45.641Z,1.00
2019-05-17T05:56:17.331Z,1.00
2019-05-17T05:58:48.987Z,1.00
2019-05-17T06:01:21.933Z,99.90
2019-05-17T06:03:53.776Z,99.90
2019-05-17T06:06:25.974Z,99.90
2019-05-17T06:08:57.934Z,99.90
2019-05-17T06:11:31.817Z,99.90
2019-05-17T06:14:02.984Z,99.90
2019-05-17T06:16:34.639Z,99.90
2019-05-17T06:19:06.492Z,99.90
2019-05-17T06:21:38.410Z,99.90
2019-05-17T06:24:11.929Z,99.90
2019-05-17T06:26:44.350Z,99.90
2019-05-17T06:29:16.198Z,99.90
2019-05-17T06:31:47.894Z,99.90
2019-05-17T06:34:22.172Z,99.90
2019-05-17T06:36:53.033Z,99.90
2019-05-17T06:39:24.683Z,99.90
2019-05-17T06:41:56.462Z,99.90
2019-05-17T06:44:28.207Z,99.90
2019-05-17T06:47:02.433Z,99.90
2019-05-17T06:49:33.427Z,99.90
2019-05-17T06:52:05.326Z,99.90
2019-05-17T06:54:36.953Z,99.90
2019-05-17T06:57:08.711Z,99.90
2019-05-17T06:59:40.634Z,99.90
2019-05-17T07:02:12.300Z,99.90
2019-05-17T07:04:44.195Z,99.90
2019-05-17T07:07:30.325Z,99.90
2019-05-17T07:10:01.398Z,99.90
2019-05-17T07:12:33.168Z,99.90
2019-05-17T07:15:06.641Z,99.90
2019-05-17T07:17:40.043Z,99.90
2019-05-17T07:20:12.150Z,99.90
2019-05-17T07:22:44.799Z,99.90
2019-05-17T07:25:16.601Z,99.90
2019-05-17T07:27:50.283Z,99.90
2019-05-17T07:30:23.515Z,99.90
2019-05-17T07:32:55.483Z,99.90
2019-05-17T07:35:27.403Z,99.90
2019-05-17T07:37:59.636Z,99.90
2019-05-17T07:40:31.544Z,99.90
2019-05-17T07:43:10.560Z,99.90
2019-05-17T07:45:36.869Z,99.90
2019-05-17T07:48:09.797Z,99.90
2019-05-17T07:50:41.782Z,99.90
2019-05-17T07:53:13.847Z,99.90
2019-05-17T07:55:45.697Z,99.90
2019-05-17T07:58:21.120Z,99.90
2019-05-17T08:00:51.625Z,99.90
2019-05-17T08:03:24.990Z,99.90
2019-05-17T08:05:56.949Z,99.90
2019-05-17T08:08:31.094Z,99.90
2019-05-17T08:11:02.252Z,99.90
2019-05-17T08:13:33.934Z,99.90
2019-05-17T08:16:05.659Z,99.90
2019-05-17T08:18:40.080Z,99.90
2019-05-17T08:21:11.107Z,99.90
2019-05-17T08:23:42.959Z,99.90
2019-05-17T08:26:14.771Z,99.90
2019-05-17T08:28:49.788Z,99.90
2019-05-17T08:31:21.350Z,99.90
2019-05-17T08:33:53.057Z,99.90
2019-05-17T08:36:24.714Z,99.90
2019-05-17T08:38:56.571Z,99.90
2019-05-17T08:41:30.815Z,99.90
2019-05-17T08:44:01.755Z,99.90
2019-05-17T08:46:33.495Z,99.90
2019-05-17T08:49:05.318Z,99.90
2019-05-17T08:51:39.509Z,99.90
2019-05-17T08:54:10.547Z,99.90
2019-05-17T08:56:42.249Z,99.90
2019-05-17T08:59:13.880Z,99.90
2019-05-17T09:01:45.520Z,99.90
2019-05-17T09:04:17.217Z,99.90
2019-05-17T09:06:50.479Z,99.90
2019-05-17T09:09:22.327Z,99.90
2019-05-17T09:11:53.992Z,99.90
2019-05-17T09:14:25.842Z,99.90
2019-05-17T09:17:00.235Z,99.90
2019-05-17T09:19:43.036Z,99.90
2019-05-17T09:22:14.716Z,99.90
2019-05-17T09:24:46.382Z,99.90
2019-05-17T09:27:19.738Z,99.90
2019-05-17T09:29:51.389Z,99.90
2019-05-17T09:32:23.020Z,99.90
2019-05-17T09:34:55.235Z,99.90
2019-05-17T09:37:27.083Z,99.90
2019-05-17T09:39:59.818Z,99.90
2019-05-17T09:42:31.677Z,99.90
2019-05-17T09:45:03.402Z,99.90
2019-05-17T09:47:35.145Z,99.90
2019-05-17T09:50:07.051Z,99.90
2019-05-17T09:52:40.501Z,99.90
2019-05-17T09:55:12.793Z,99.90
2019-05-17T09:57:44.468Z,99.90
2019-05-17T10:00:20.584Z,97.10
2019-05-17T10:02:51.160Z,97.70
2019-05-17T10:05:22.894Z,91.70
2019-05-17T10:07:54.964Z,86.50
2019-05-17T10:10:26.735Z,84.40
2019-05-17T10:13:00.226Z,80.50
2019-05-17T10:15:32.180Z,77.40
2019-05-17T10:18:05.141Z,78.00
2019-05-17T10:20:36.801Z,74.90
2019-05-17T10:23:10.558Z,77.00
2019-05-17T10:25:41.999Z,76.20
2019-05-17T10:28:13.629Z,70.30
2019-05-17T10:30:45.322Z,63.40
2019-05-17T10:33:17.104Z,57.30
2019-05-17T10:35:49.674Z,38.90
2019-05-17T10:38:21.467Z,35.50
2019-05-17T10:40:53.118Z,50.10
2019-05-17T10:43:24.810Z,32.90
2019-05-17T10:45:56.582Z,26.80
2019-05-17T10:48:30.060Z,27.50
2019-05-17T10:51:01.821Z,23.40
2019-05-17T10:53:34.954Z,25.40
2019-05-17T10:56:06.595Z,20.80
2019-05-17T10:58:39.897Z,21.10
2019-05-17T11:01:11.724Z,21.30
2019-05-17T11:03:43.482Z,20.40
2019-05-17T11:06:15.234Z,19.80
2019-05-17T11:08:46.906Z,18.00
2019-05-17T11:11:20.026Z,19.20
2019-05-17T11:13:53.087Z,20.70
2019-05-17T11:16:25.115Z,19.10
2019-05-17T11:18:56.900Z,18.20
2019-05-17T11:21:28.698Z,20.90
2019-05-17T11:24:00.660Z,20.80
2019-05-17T11:26:32.616Z,20.40
2019-05-17T11:29:04.857Z,14.20
2019-05-17T11:31:36.513Z,8.00
2019-05-17T11:34:08.457Z,6.50
2019-05-17T11:36:40.577Z,7.20
2019-05-17T11:39:12.212Z,7.40
2019-05-17T11:41:43.860Z,4.10
2019-05-17T11:44:15.677Z,2.30
2019-05-17T11:46:47.295Z,3.90
2019-05-17T11:49:20.011Z,4.30
2019-05-17T11:51:51.746Z,3.80
2019-05-17T11:54:23.448Z,7.70
2019-05-17T11:56:55.262Z,3.70
2019-05-17T11:59:27.041Z,4.70
2019-05-17T12:01:58.689Z,1.00
2019-05-17T12:04:30.568Z,1.00
2019-05-17T12:07:02.292Z,1.00
2019-05-17T12:09:37.276Z,1.00
2019-05-17T12:12:07.318Z,1.00
2019-05-17T12:14:41.108Z,1.00
2019-05-17T12:17:12.868Z,1.00
2019-05-17T12:19:44.738Z,1.00
2019-05-17T12:22:19.408Z,1.00
2019-05-17T12:24:51.070Z,1.00
2019-05-17T12:27:22.734Z,1.00
2019-05-17T12:29:55.502Z,1.00
2019-05-17T12:32:27.321Z,1.00
2019-05-17T12:34:59.153Z,1.00
2019-05-17T12:37:30.791Z,1.00
2019-05-17T12:40:02.503Z,1.00
2019-05-17T12:42:34.283Z,1.00
2019-05-17T12:45:06.890Z,1.00
2019-05-17T12:47:38.726Z,1.00
2019-05-17T12:50:10.634Z,1.00
2019-05-17T12:52:42.282Z,1.00
2019-05-17T12:55:14.627Z,1.00
2019-05-17T12:57:46.367Z,1.00
2019-05-17T13:00:18.080Z,1.00
2019-05-17T13:02:49.717Z,1.00
2019-05-17T13:05:21.447Z,1.00
2019-05-17T13:07:53.162Z,1.00
2019-05-17T13:10:24.873Z,1.00
2019-05-17T13:12:56.589Z,1.00
2019-05-17T13:15:28.406Z,1.00
2019-05-17T13:18:00.253Z,1.00
2019-05-17T13:20:31.935Z,1.00
2019-05-17T13:23:03.817Z,1.00
2019-05-17T13:25:35.661Z,1.00
2019-05-17T13:28:07.340Z,1.00
2019-05-17T13:30:39.015Z,1.00
2019-05-17T13:33:10.598Z,1.00
2019-05-17T13:35:42.241Z,1.00
2019-05-17T13:38:13.948Z,1.00
2019-05-17T13:40:45.873Z,1.00
2019-05-17T13:43:17.627Z,1.00
2019-05-17T13:45:49.348Z,1.00
2019-05-17T13:48:22.099Z,1.00
2019-05-17T13:50:54.161Z,1.00
2019-05-17T13:53:25.963Z,1.00
2019-05-17T13:55:57.806Z,1.00
2019-05-17T13:58:29.739Z,1.00
2019-05-17T14:01:01.764Z,1.00
2019-05-17T14:03:34.990Z,1.00
2019-05-17T14:06:06.764Z,1.00
2019-05-17T14:08:38.503Z,1.00
2019-05-17T14:11:10.222Z,1.00
2019-05-17T14:13:41.950Z,1.00
2019-05-17T14:16:13.729Z,1.00
2019-05-17T14:18:45.494Z,1.00
2019-05-17T14:21:17.192Z,1.00
2019-05-17T14:23:48.973Z,1.00
2019-05-17T14:26:20.687Z,1.00
2019-05-17T14:28:52.328Z,1.00
2019-05-17T14:31:24.031Z,1.00
2019-05-17T14:33:55.873Z,1.00
2019-05-17T14:36:27.782Z,1.00
2019-05-17T14:38:59.547Z,1.00
2019-05-17T14:41:31.279Z,1.00
2019-05-17T14:44:04.656Z,1.00
2019-05-17T14:46:36.527Z,1.00
2019-05-17T14:49:08.356Z,1.00
2019-05-17T14:51:40.039Z,1.00
2019-05-17T14:54:11.911Z,1.00
2019-05-17T14:56:44.047Z,1.00
2019-05-17T14:59:15.654Z,1.00
2019-05-17T15:01:47.514Z,1.00
2019-05-17T15:04:19.237Z,1.00
2019-05-17T15:06:50.995Z,1.00
2019-05-17T15:09:22.851Z,1.00
2019-05-17T15:11:54.588Z,1.00
2019-05-17T15:14:29.438Z,1.00
2019-05-17T15:16:59.788Z,1.00
2019-05-17T15:19:32.108Z,1.00
2019-05-17T15:22:03.901Z,1.00
2019-05-17T15:24:36.785Z,1.00
2019-05-17T15:27:08.498Z,1.00
2019-05-17T15:29:40.373Z,1.00
2019-05-17T15:32:12.026Z,1.00
2019-05-17T15:34:43.681Z,1.00
2019-05-17T15:37:15.580Z,1.00
2019-05-17T15:39:47.344Z,1.00
2019-05-17T15:42:19.127Z,1.00
2019-05-17T15:44:51.870Z,1.00
2019-05-17T15:47:23.787Z,1.00
2019-05-17T15:49:56.955Z,1.00
2019-05-17T15:52:30.083Z,1.00
2019-05-17T15:55:01.810Z,1.00
2019-05-17T15:57:33.584Z,1.00
2019-05-17T16:00:06.224Z,1.00
2019-05-17T16:02:38.156Z,1.00
2019-05-17T16:05:10.237Z,1.00
2019-05-17T16:07:42.063Z,1.00
2019-05-17T16:10:15.305Z,1.00
2019-05-17T16:13:01.073Z,1.00
2019-05-17T16:15:20.663Z,1.00
2019-05-17T16:17:52.454Z,1.00
2019-05-17T16:20:24.196Z,1.00
2019-05-17T16:22:55.956Z,1.00
2019-05-17T16:25:27.610Z,1.00
2019-05-17T16:27:59.300Z,1.00
2019-05-17T16:30:31.277Z,1.00
2019-05-17T16:33:02.983Z,1.00
2019-05-17T16:35:34.683Z,1.00
2019-05-17T16:38:07.425Z,1.00
2019-05-17T16:40:40.163Z,1.00
2019-05-17T16:43:18.285Z,1.00
2019-05-17T16:45:45.340Z,1.00
2019-05-17T16:48:16.977Z,1.00
2019-05-17T16:50:48.852Z,1.00
2019-05-17T16:53:20.493Z,1.00
2019-05-17T16:55:52.232Z,1.00
2019-05-17T16:58:23.865Z,1.00
2019-05-17T17:00:55.507Z,1.00
2019-05-17T17:03:43.300Z,1.00
2019-05-17T17:06:01.127Z,1.00
2019-05-17T17:08:33.206Z,1.00
2019-05-17T17:11:04.939Z,1.00
2019-05-17T17:13:37.418Z,1.00
2019-05-17T17:16:09.023Z,1.00
2019-05-17T17:18:40.682Z,1.00
2019-05-17T17:21:12.426Z,1.00
2019-05-17T17:23:44.128Z,1.00
2019-05-17T17:26:15.753Z,1.00
2019-05-17T17:28:47.528Z,1.00
2019-05-17T17:31:19.500Z,1.00
2019-05-17T17:33:51.124Z,1.00
2019-05-17T17:36:22.734Z,1.00
2019-05-17T17:38:54.394Z,1.00
2019-05-17T17:41:26.764Z,1.00
2019-05-17T17:43:59.832Z,1.00
2019-05-17T17:46:31.517Z,1.00
2019-05-17T17:49:03.281Z,1.00
2019-05-17T17:51:35.162Z,1.00
2019-05-17T17:54:06.947Z,1.00
2019-05-17T17:56:38.598Z,1.00
2019-05-17T17:59:10.345Z,1.00
2019-05-17T18:01:42.100Z,1.00
2019-05-17T18:04:13.858Z,1.00
2019-05-17T18:06:45.524Z,1.00
2019-05-17T18:09:17.163Z,1.00
2019-05-17T18:11:48.892Z,1.00
2019-05-17T18:14:20.652Z,1.00
2019-05-17T18:16:52.369Z,1.00
2019-05-17T18:19:24.248Z,2.50
2019-05-17T18:21:55.977Z,3.90
2019-05-17T18:24:27.822Z,6.40
2019-05-17T18:26:59.731Z,8.20
2019-05-17T18:29:31.497Z,9.80
2019-05-17T18:32:03.277Z,12.90
2019-05-17T18:34:35.222Z,14.40
2019-05-17T18:37:07.051Z,14.90
2019-05-17T18:39:38.923Z,13.20
2019-05-17T18:42:10.770Z,14.10
2019-05-17T18:44:42.531Z,17.00
2019-05-17T18:47:14.329Z,16.90
2019-05-17T18:49:46.091Z,18.80
2019-05-17T18:52:19.077Z,19.90
2019-05-17T18:54:50.865Z,21.40
2019-05-17T18:57:22.695Z,23.20
2019-05-17T18:59:54.474Z,26.10
2019-05-17T19:02:26.237Z,28.20
2019-05-17T19:04:58.007Z,30.70
2019-05-17T19:07:29.737Z,30.90
2019-05-17T19:10:01.615Z,34.30
2019-05-17T19:12:33.627Z,36.40
2019-05-17T19:15:06.445Z,37.50
2019-05-17T19:17:38.247Z,39.70
2019-05-17T19:20:10.228Z,41.40
2019-05-17T19:22:41.985Z,44.30
2019-05-17T19:25:19.527Z,46.00
2019-05-17T19:27:52.620Z,48.60
2019-05-17T19:30:25.303Z,49.90
2019-05-17T19:32:57.103Z,52.80
2019-05-17T19:35:28.865Z,56.30
2019-05-17T19:38:07.043Z,59.60
2019-05-17T19:40:49.748Z,64.30
2019-05-17T19:43:21.590Z,63.80
2019-05-17T19:45:53.417Z,67.50
2019-05-17T19:48:26.304Z,69.00
2019-05-17T19:50:58.120Z,70.10
2019-05-17T19:53:29.975Z,71.90
2019-05-17T19:56:01.803Z,75.00
2019-05-17T19:58:34.719Z,74.70
2019-05-17T20:01:06.656Z,74.90
2019-05-17T20:03:38.541Z,78.00
2019-05-17T20:06:10.390Z,74.90
2019-05-17T20:08:42.223Z,74.50
2019-05-17T20:11:14.018Z,76.20
2019-05-17T20:13:45.723Z,80.30
2019-05-17T20:16:17.478Z,81.30
2019-05-17T20:18:49.133Z,83.40
2019-05-17T20:21:20.923Z,84.60
2019-05-17T20:23:52.664Z,87.00
2019-05-17T20:26:24.520Z,87.70
2019-05-17T20:28:56.167Z,90.00
2019-05-17T20:31:27.881Z,90.80
2019-05-17T20:33:59.639Z,91.10
2019-05-17T20:36:31.369Z,92.30
2019-05-17T20:39:03.620Z,91.40
2019-05-17T20:41:35.662Z,91.80
2019-05-17T20:44:07.391Z,92.60
2019-05-17T20:46:39.133Z,94.30
2019-05-17T20:49:10.865Z,95.00
2019-05-17T20:51:42.531Z,97.10
2019-05-17T20:54:14.164Z,97.90
2019-05-17T20:56:45.913Z,99.90
2019-05-17T20:59:17.616Z,99.90
2019-05-17T21:01:49.446Z,99.90
2019-05-17T21:04:21.093Z,99.90
2019-05-17T21:06:53.152Z,99.90
2019-05-17T21:09:24.829Z,99.90
2019-05-17T21:11:56.592Z,99.90
2019-05-17T21:14:28.325Z,99.90
2019-05-17T21:17:00.121Z,99.90
2019-05-17T21:19:31.767Z,99.90
2019-05-17T21:22:03.458Z,99.90
2019-05-17T21:24:35.180Z,99.90
2019-05-17T21:27:06.919Z,99.90
2019-05-17T21:29:38.633Z,99.90
2019-05-17T21:32:10.316Z,99.90
2019-05-17T21:34:42.157Z,99.90
2019-05-17T21:37:13.843Z,99.90
2019-05-17T21:39:45.527Z,99.90
2019-05-17T21:42:17.287Z,99.90
2019-05-17T21:44:48.961Z,99.90
2019-05-17T21:47:20.663Z,99.90
2019-05-17T21:49:52.371Z,99.90
2019-05-17T21:52:24.154Z,99.90
2019-05-17T21:54:56.253Z,99.90
2019-05-17T21:57:27.968Z,99.90
2019-05-17T22:00:00.756Z,99.90
2019-05-17T22:02:32.573Z,99.90
2019-05-17T22:05:04.497Z,99.90
2019-05-17T22:07:36.226Z,99.90
2019-05-17T22:10:08.615Z,99.90
2019-05-17T22:12:40.487Z,99.90
2019-05-17T22:15:12.331Z,99.90
2019-05-17T22:17:44.100Z,99.90
2019-05-17T22:20:15.883Z,99.90
2019-05-17T22:22:47.643Z,99.90
2019-05-17T22:25:19.468Z,99.90
2019-05-17T22:27:51.466Z,99.90
2019-05-17T22:30:23.456Z,99.90
2019-05-17T22:32:55.372Z,99.90
2019-05-17T22:35:27.168Z,99.90
2019-05-17T22:37:59.010Z,99.90
2019-05-17T22:40:30.935Z,99.90
2019-05-17T22:43:02.618Z,99.90
2019-05-17T22:45:34.315Z,99.90
2019-05-17T22:48:06.276Z,99.90
2019-05-17T22:50:38.193Z,99.90
2019-05-17T22:53:10.819Z,99.90
2019-05-17T22:55:42.480Z,99.90
2019-05-17T22:58:15.185Z,99.90
2019-05-17T23:00:47.283Z,99.90
2019-05-17T23:03:18.977Z,99.90
2019-05-17T23:05:50.900Z,99.90
2019-05-17T23:08:22.581Z,99.90
2019-05-17T23:10:54.278Z,99.90
2019-05-17T23:13:26.023Z,99.90
2019-05-17T23:16:06.103Z,99.90
2019-05-17T23:18:38.445Z,99.90
2019-05-17T23:21:10.257Z,99.90
2019-05-17T23:23:41.928Z,99.90
2019-05-17T23:26:13.556Z,99.90
2019-05-17T23:28:45.204Z,99.90
2019-05-17T23:31:16.946Z,99.90
2019-05-17T23:33:48.722Z,99.90
2019-05-17T23:36:20.428Z,99.90
2019-05-17T23:38:52.150Z,99.90
2019-05-17T23:41:23.879Z,99.90
2019-05-17T23:43:55.645Z,99.90
2019-05-17T23:46:27.284Z,99.90
2019-05-17T23:48:59.074Z,99.90
2019-05-17T23:51:30.847Z,99.90
2019-05-17T23:54:02.509Z,99.90
2019-05-17T23:56:34.311Z,99.90
2019-05-17T23:59:06.138Z,99.90
